sensor_id;sensor_type;location;lat;lon;timestamp;temperature;humidity
6462;DHT22;3264;42.862;25.098;2023-04-08T00:00:33;5.30;99.90
6462;DHT22;3264;42.862;25.098;2023-04-08T00:03:29;5.20;99.90
6462;DHT22;3264;42.862;25.098;2023-04-08T00:05:57;5.20;99.90
6462;DHT22;3264;42.862;25.098;2023-04-08T00:08:27;5.30;99.90
6462;DHT22;3264;42.862;25.098;2023-04-08T00:10:55;5.30;99.90
6462;DHT22;3264;42.862;25.098;2023-04-08T00:13:24;5.30;99.90
6462;DHT22;3264;42.862;25.098;2023-04-08T00:15:54;5.20;99.90
6462;DHT22;3264;42.862;25.098;2023-04-08T00:18:22;5.20;99.90
6462;DHT22;3264;42.862;25.098;2023-04-08T00:20:50;5.20;99.90
6462;DHT22;3264;42.862;25.098;2023-04-08T00:23:20;5.10;99.90
6462;DHT22;3264;42.862;25.098;2023-04-08T00:25:47;5.10;99.90
6462;DHT22;3264;42.862;25.098;2023-04-08T00:28:17;5.10;99.90
6462;DHT22;3264;42.862;25.098;2023-04-08T00:30:45;5.10;99.90
6462;DHT22;3264;42.862;25.098;2023-04-08T00:33:14;5.20;99.90
6462;DHT22;3264;42.862;25.098;2023-04-08T00:35:42;5.20;99.90
6462;DHT22;3264;42.862;25.098;2023-04-08T00:38:14;5.20;99.90
6462;DHT22;3264;42.862;25.098;2023-04-08T00:40:42;5.10;99.90
6462;DHT22;3264;42.862;25.098;2023-04-08T00:43:11;5.10;99.90
6462;DHT22;3264;42.862;25.098;2023-04-08T00:45:42;5.10;99.90
6462;DHT22;3264;42.862;25.098;2023-04-08T00:48:12;5.10;99.90
6462;DHT22;3264;42.862;25.098;2023-04-08T00:50:42;5.10;99.90
6462;DHT22;3264;42.862;25.098;2023-04-08T00:53:12;5.10;99.90
6462;DHT22;3264;42.862;25.098;2023-04-08T00:55:43;5.10;99.90
6462;DHT22;3264;42.862;25.098;2023-04-08T00:58:12;5.10;99.90
6462;DHT22;3264;42.862;25.098;2023-04-08T01:00:47;5.10;99.90
6462;DHT22;3264;42.862;25.098;2023-04-08T01:03:23;5.10;99.90
6462;DHT22;3264;42.862;25.098;2023-04-08T01:06:01;5.10;99.90
6462;DHT22;3264;42.862;25.098;2023-04-08T01:08:41;5.10;99.90
6462;DHT22;3264;42.862;25.098;2023-04-08T01:11:10;5.30;99.90
6462;DHT22;3264;42.862;25.098;2023-04-08T01:13:43;5.30;99.90
6462;DHT22;3264;42.862;25.098;2023-04-08T01:16:14;5.20;99.90
6462;DHT22;3264;42.862;25.098;2023-04-08T01:18:45;5.10;99.90
6462;DHT22;3264;42.862;25.098;2023-04-08T01:21:16;5.20;99.90
6462;DHT22;3264;42.862;25.098;2023-04-08T01:23:55;5.10;99.90
6462;DHT22;3264;42.862;25.098;2023-04-08T01:26:27;5.10;99.90
6462;DHT22;3264;42.862;25.098;2023-04-08T01:28:59;5.10;99.90
6462;DHT22;3264;42.862;25.098;2023-04-08T01:31:29;5.00;99.90
6462;DHT22;3264;42.862;25.098;2023-04-08T01:34:00;5.10;99.90
6462;DHT22;3264;42.862;25.098;2023-04-08T01:36:31;4.90;99.90
6462;DHT22;3264;42.862;25.098;2023-04-08T01:39:02;4.90;99.90
6462;DHT22;3264;42.862;25.098;2023-04-08T01:41:35;4.90;99.90
6462;DHT22;3264;42.862;25.098;2023-04-08T01:44:05;5.00;99.90
6462;DHT22;3264;42.862;25.098;2023-04-08T01:46:33;5.00;99.90
6462;DHT22;3264;42.862;25.098;2023-04-08T01:49:02;5.00;99.90
6462;DHT22;3264;42.862;25.098;2023-04-08T01:51:33;5.00;99.90
6462;DHT22;3264;42.862;25.098;2023-04-08T01:54:07;4.90;99.90
6462;DHT22;3264;42.862;25.098;2023-04-08T01:56:40;4.80;99.90
6462;DHT22;3264;42.862;25.098;2023-04-08T01:59:10;4.90;99.90
6462;DHT22;3264;42.862;25.098;2023-04-08T02:01:41;5.00;99.90
6462;DHT22;3264;42.862;25.098;2023-04-08T02:04:14;5.00;99.90
6462;DHT22;3264;42.862;25.098;2023-04-08T02:06:42;5.00;99.90
6462;DHT22;3264;42.862;25.098;2023-04-08T02:09:12;4.90;99.90
6462;DHT22;3264;42.862;25.098;2023-04-08T02:11:42;5.00;99.90
6462;DHT22;3264;42.862;25.098;2023-04-08T02:14:11;4.90;99.90
6462;DHT22;3264;42.862;25.098;2023-04-08T02:16:45;4.90;99.90
6462;DHT22;3264;42.862;25.098;2023-04-08T02:19:22;4.80;99.90
6462;DHT22;3264;42.862;25.098;2023-04-08T02:21:58;4.80;99.90
6462;DHT22;3264;42.862;25.098;2023-04-08T02:24:35;4.70;99.90
6462;DHT22;3264;42.862;25.098;2023-04-08T02:27:06;4.80;99.90
6462;DHT22;3264;42.862;25.098;2023-04-08T02:29:39;4.80;99.90
6462;DHT22;3264;42.862;25.098;2023-04-08T02:32:10;4.80;99.90
6462;DHT22;3264;42.862;25.098;2023-04-08T02:34:41;4.70;99.90
6462;DHT22;3264;42.862;25.098;2023-04-08T02:37:11;4.80;99.90
6462;DHT22;3264;42.862;25.098;2023-04-08T02:39:40;4.80;99.90
6462;DHT22;3264;42.862;25.098;2023-04-08T02:42:10;4.80;99.90
6462;DHT22;3264;42.862;25.098;2023-04-08T02:44:40;4.80;99.90
6462;DHT22;3264;42.862;25.098;2023-04-08T02:47:09;4.80;99.90
6462;DHT22;3264;42.862;25.098;2023-04-08T02:49:39;4.70;99.90
6462;DHT22;3264;42.862;25.098;2023-04-08T02:52:08;4.70;99.90
6462;DHT22;3264;42.862;25.098;2023-04-08T02:54:38;4.80;99.90
6462;DHT22;3264;42.862;25.098;2023-04-08T02:57:07;4.80;99.90
6462;DHT22;3264;42.862;25.098;2023-04-08T02:59:37;4.70;99.90
6462;DHT22;3264;42.862;25.098;2023-04-08T03:02:07;4.70;99.90
6462;DHT22;3264;42.862;25.098;2023-04-08T03:04:35;4.80;99.90
6462;DHT22;3264;42.862;25.098;2023-04-08T03:07:03;4.80;99.90
6462;DHT22;3264;42.862;25.098;2023-04-08T03:09:31;4.80;99.90
6462;DHT22;3264;42.862;25.098;2023-04-08T03:12:00;4.80;99.90
6462;DHT22;3264;42.862;25.098;2023-04-08T03:14:29;4.70;99.90
6462;DHT22;3264;42.862;25.098;2023-04-08T03:16:58;4.80;99.90
6462;DHT22;3264;42.862;25.098;2023-04-08T03:19:28;4.70;99.90
6462;DHT22;3264;42.862;25.098;2023-04-08T03:21:55;4.70;99.90
6462;DHT22;3264;42.862;25.098;2023-04-08T03:24:24;4.70;99.90
6462;DHT22;3264;42.862;25.098;2023-04-08T03:26:54;4.70;99.90
6462;DHT22;3264;42.862;25.098;2023-04-08T03:29:24;4.70;99.90
6462;DHT22;3264;42.862;25.098;2023-04-08T03:31:52;4.70;99.90
6462;DHT22;3264;42.862;25.098;2023-04-08T03:34:23;4.80;99.90
6462;DHT22;3264;42.862;25.098;2023-04-08T03:36:52;4.80;99.90
6462;DHT22;3264;42.862;25.098;2023-04-08T03:39:22;4.70;99.90
6462;DHT22;3264;42.862;25.098;2023-04-08T03:41:51;4.70;99.90
6462;DHT22;3264;42.862;25.098;2023-04-08T03:44:20;4.70;99.90
6462;DHT22;3264;42.862;25.098;2023-04-08T03:46:47;4.70;99.90
6462;DHT22;3264;42.862;25.098;2023-04-08T03:49:15;4.70;99.90
6462;DHT22;3264;42.862;25.098;2023-04-08T03:51:44;4.70;99.90
6462;DHT22;3264;42.862;25.098;2023-04-08T03:54:12;4.70;99.90
6462;DHT22;3264;42.862;25.098;2023-04-08T03:56:40;4.60;99.90
6462;DHT22;3264;42.862;25.098;2023-04-08T03:59:09;4.70;99.90
6462;DHT22;3264;42.862;25.098;2023-04-08T04:01:36;4.70;99.90
6462;DHT22;3264;42.862;25.098;2023-04-08T04:04:05;4.70;99.90
6462;DHT22;3264;42.862;25.098;2023-04-08T04:06:33;4.70;99.90
6462;DHT22;3264;42.862;25.098;2023-04-08T04:09:18;4.70;99.90
6462;DHT22;3264;42.862;25.098;2023-04-08T04:11:45;4.60;99.90
6462;DHT22;3264;42.862;25.098;2023-04-08T04:14:13;4.60;99.90
6462;DHT22;3264;42.862;25.098;2023-04-08T04:16:41;4.70;99.90
6462;DHT22;3264;42.862;25.098;2023-04-08T04:19:10;4.70;99.90
6462;DHT22;3264;42.862;25.098;2023-04-08T04:21:38;4.70;99.90
6462;DHT22;3264;42.862;25.098;2023-04-08T04:24:07;4.60;99.90
6462;DHT22;3264;42.862;25.098;2023-04-08T04:26:37;4.60;99.90
6462;DHT22;3264;42.862;25.098;2023-04-08T04:29:08;4.70;99.90
6462;DHT22;3264;42.862;25.098;2023-04-08T04:31:37;4.70;99.90
6462;DHT22;3264;42.862;25.098;2023-04-08T04:34:06;4.70;99.90
6462;DHT22;3264;42.862;25.098;2023-04-08T04:36:35;4.70;99.90
6462;DHT22;3264;42.862;25.098;2023-04-08T04:39:02;4.70;99.90
6462;DHT22;3264;42.862;25.098;2023-04-08T04:41:30;4.80;99.90
6462;DHT22;3264;42.862;25.098;2023-04-08T04:44:01;4.80;99.90
6462;DHT22;3264;42.862;25.098;2023-04-08T04:46:29;4.80;99.90
6462;DHT22;3264;42.862;25.098;2023-04-08T04:48:56;4.80;99.90
6462;DHT22;3264;42.862;25.098;2023-04-08T04:51:26;4.90;99.90
6462;DHT22;3264;42.862;25.098;2023-04-08T04:53:54;4.80;99.90
6462;DHT22;3264;42.862;25.098;2023-04-08T04:56:21;4.90;99.90
6462;DHT22;3264;42.862;25.098;2023-04-08T04:58:50;4.90;99.90
6462;DHT22;3264;42.862;25.098;2023-04-08T05:01:20;4.90;99.90
6462;DHT22;3264;42.862;25.098;2023-04-08T05:03:48;4.90;99.90
6462;DHT22;3264;42.862;25.098;2023-04-08T05:06:17;5.00;99.90
6462;DHT22;3264;42.862;25.098;2023-04-08T05:08:46;5.00;99.90
6462;DHT22;3264;42.862;25.098;2023-04-08T05:11:15;5.10;99.90
6462;DHT22;3264;42.862;25.098;2023-04-08T05:13:44;5.20;99.90
6462;DHT22;3264;42.862;25.098;2023-04-08T05:16:12;5.30;99.90
6462;DHT22;3264;42.862;25.098;2023-04-08T05:18:42;5.30;99.90
6462;DHT22;3264;42.862;25.098;2023-04-08T05:21:10;5.30;99.90
6462;DHT22;3264;42.862;25.098;2023-04-08T05:23:40;5.30;99.90
6462;DHT22;3264;42.862;25.098;2023-04-08T05:26:09;5.40;99.90
6462;DHT22;3264;42.862;25.098;2023-04-08T05:28:37;5.40;99.90
6462;DHT22;3264;42.862;25.098;2023-04-08T05:31:04;5.60;99.90
6462;DHT22;3264;42.862;25.098;2023-04-08T05:33:32;5.70;99.90
6462;DHT22;3264;42.862;25.098;2023-04-08T05:36:01;5.60;99.90
6462;DHT22;3264;42.862;25.098;2023-04-08T05:38:46;5.60;99.90
6462;DHT22;3264;42.862;25.098;2023-04-08T05:41:14;5.70;99.90
6462;DHT22;3264;42.862;25.098;2023-04-08T05:43:44;5.80;99.90
6462;DHT22;3264;42.862;25.098;2023-04-08T05:46:14;5.80;99.90
6462;DHT22;3264;42.862;25.098;2023-04-08T05:48:42;5.80;99.90
6462;DHT22;3264;42.862;25.098;2023-04-08T05:51:15;5.90;99.90
6462;DHT22;3264;42.862;25.098;2023-04-08T05:53:44;6.10;99.90
6462;DHT22;3264;42.862;25.098;2023-04-08T05:56:14;6.30;99.90
6462;DHT22;3264;42.862;25.098;2023-04-08T05:58:42;6.20;99.90
6462;DHT22;3264;42.862;25.098;2023-04-08T06:01:11;6.20;99.90
6462;DHT22;3264;42.862;25.098;2023-04-08T06:03:39;6.20;99.90
6462;DHT22;3264;42.862;25.098;2023-04-08T06:06:09;6.20;99.90
6462;DHT22;3264;42.862;25.098;2023-04-08T06:08:40;6.30;99.90
6462;DHT22;3264;42.862;25.098;2023-04-08T06:11:10;6.30;99.90
6462;DHT22;3264;42.862;25.098;2023-04-08T06:13:39;6.50;99.90
6462;DHT22;3264;42.862;25.098;2023-04-08T06:16:12;6.50;99.90
6462;DHT22;3264;42.862;25.098;2023-04-08T06:18:42;6.50;99.90
6462;DHT22;3264;42.862;25.098;2023-04-08T06:21:11;6.50;99.90
6462;DHT22;3264;42.862;25.098;2023-04-08T06:23:42;6.60;99.90
6462;DHT22;3264;42.862;25.098;2023-04-08T06:26:09;6.40;99.90
6462;DHT22;3264;42.862;25.098;2023-04-08T06:28:40;6.70;99.90
6462;DHT22;3264;42.862;25.098;2023-04-08T06:31:09;6.80;99.90
6462;DHT22;3264;42.862;25.098;2023-04-08T06:33:36;6.90;99.90
6462;DHT22;3264;42.862;25.098;2023-04-08T06:36:05;7.00;99.90
6462;DHT22;3264;42.862;25.098;2023-04-08T06:38:35;6.90;99.90
6462;DHT22;3264;42.862;25.098;2023-04-08T06:41:05;7.10;99.90
6462;DHT22;3264;42.862;25.098;2023-04-08T06:43:34;7.10;99.90
6462;DHT22;3264;42.862;25.098;2023-04-08T06:46:02;7.20;99.90
6462;DHT22;3264;42.862;25.098;2023-04-08T06:48:30;7.40;99.90
6462;DHT22;3264;42.862;25.098;2023-04-08T06:51:00;7.10;99.90
6462;DHT22;3264;42.862;25.098;2023-04-08T06:53:29;7.40;99.90
6462;DHT22;3264;42.862;25.098;2023-04-08T06:55:58;7.60;99.90
6462;DHT22;3264;42.862;25.098;2023-04-08T06:58:27;7.70;99.90
6462;DHT22;3264;42.862;25.098;2023-04-08T07:00:56;7.80;99.90
6462;DHT22;3264;42.862;25.098;2023-04-08T07:03:25;7.80;99.90
6462;DHT22;3264;42.862;25.098;2023-04-08T07:05:53;8.00;99.90
6462;DHT22;3264;42.862;25.098;2023-04-08T07:08:21;7.80;99.90
6462;DHT22;3264;42.862;25.098;2023-04-08T07:10:50;7.90;99.90
6462;DHT22;3264;42.862;25.098;2023-04-08T07:13:20;8.30;99.80
6462;DHT22;3264;42.862;25.098;2023-04-08T07:15:51;8.70;99.90
6462;DHT22;3264;42.862;25.098;2023-04-08T07:18:19;9.00;99.90
6462;DHT22;3264;42.862;25.098;2023-04-08T07:20:50;8.60;98.10
6462;DHT22;3264;42.862;25.098;2023-04-08T07:23:20;9.00;98.10
6462;DHT22;3264;42.862;25.098;2023-04-08T07:25:49;9.30;96.10
6462;DHT22;3264;42.862;25.098;2023-04-08T07:28:17;9.60;96.10
6462;DHT22;3264;42.862;25.098;2023-04-08T07:30:45;9.70;96.20
6462;DHT22;3264;42.862;25.098;2023-04-08T07:33:14;10.00;94.90
6462;DHT22;3264;42.862;25.098;2023-04-08T07:35:43;10.60;94.70
6462;DHT22;3264;42.862;25.098;2023-04-08T07:38:11;10.90;91.60
6462;DHT22;3264;42.862;25.098;2023-04-08T07:40:40;10.90;91.60
6462;DHT22;3264;42.862;25.098;2023-04-08T07:43:10;10.80;90.60
6462;DHT22;3264;42.862;25.098;2023-04-08T07:45:39;10.90;91.00
6462;DHT22;3264;42.862;25.098;2023-04-08T07:48:08;10.70;86.90
6462;DHT22;3264;42.862;25.098;2023-04-08T07:50:39;11.30;86.40
6462;DHT22;3264;42.862;25.098;2023-04-08T07:53:08;11.80;86.20
6462;DHT22;3264;42.862;25.098;2023-04-08T07:55:37;11.70;82.90
6462;DHT22;3264;42.862;25.098;2023-04-08T07:58:08;11.00;81.80
6462;DHT22;3264;42.862;25.098;2023-04-08T08:00:37;11.20;85.50
6462;DHT22;3264;42.862;25.098;2023-04-08T08:03:07;11.60;86.90
6462;DHT22;3264;42.862;25.098;2023-04-08T08:05:38;12.00;85.70
6462;DHT22;3264;42.862;25.098;2023-04-08T08:08:05;11.60;83.30
6462;DHT22;3264;42.862;25.098;2023-04-08T08:10:38;11.90;85.80
6462;DHT22;3264;42.862;25.098;2023-04-08T08:13:08;12.30;87.70
6462;DHT22;3264;42.862;25.098;2023-04-08T08:15:38;12.20;89.50
6462;DHT22;3264;42.862;25.098;2023-04-08T08:18:06;12.30;89.10
6462;DHT22;3264;42.862;25.098;2023-04-08T08:20:35;12.10;85.80
6462;DHT22;3264;42.862;25.098;2023-04-08T08:23:05;12.00;89.40
6462;DHT22;3264;42.862;25.098;2023-04-08T08:25:34;12.60;88.20
6462;DHT22;3264;42.862;25.098;2023-04-08T08:28:02;12.90;88.40
6462;DHT22;3264;42.862;25.098;2023-04-08T08:30:30;13.00;86.90
6462;DHT22;3264;42.862;25.098;2023-04-08T08:32:57;13.00;83.40
6462;DHT22;3264;42.862;25.098;2023-04-08T08:35:25;13.20;84.10
6462;DHT22;3264;42.862;25.098;2023-04-08T08:37:53;13.70;83.00
6462;DHT22;3264;42.862;25.098;2023-04-08T08:40:24;13.80;81.30
6462;DHT22;3264;42.862;25.098;2023-04-08T08:42:52;13.60;81.20
6462;DHT22;3264;42.862;25.098;2023-04-08T08:45:20;13.50;80.70
6462;DHT22;3264;42.862;25.098;2023-04-08T08:47:50;13.50;81.30
6462;DHT22;3264;42.862;25.098;2023-04-08T08:50:18;13.60;81.70
6462;DHT22;3264;42.862;25.098;2023-04-08T08:52:50;13.50;82.90
6462;DHT22;3264;42.862;25.098;2023-04-08T08:55:19;13.70;80.90
6462;DHT22;3264;42.862;25.098;2023-04-08T08:57:51;13.60;80.30
6462;DHT22;3264;42.862;25.098;2023-04-08T09:00:29;14.00;79.70
6462;DHT22;3264;42.862;25.098;2023-04-08T09:03:15;14.10;77.70
6462;DHT22;3264;42.862;25.098;2023-04-08T09:05:52;14.50;77.00
6462;DHT22;3264;42.862;25.098;2023-04-08T09:08:24;14.60;76.70
6462;DHT22;3264;42.862;25.098;2023-04-08T09:10:55;14.90;76.00
6462;DHT22;3264;42.862;25.098;2023-04-08T09:13:24;15.00;74.20
6462;DHT22;3264;42.862;25.098;2023-04-08T09:16:04;15.20;73.20
6462;DHT22;3264;42.862;25.098;2023-04-08T09:18:32;14.20;75.40
6462;DHT22;3264;42.862;25.098;2023-04-08T09:21:01;14.10;76.10
6462;DHT22;3264;42.862;25.098;2023-04-08T09:23:44;14.30;77.20
6462;DHT22;3264;42.862;25.098;2023-04-08T09:26:15;14.20;75.90
6462;DHT22;3264;42.862;25.098;2023-04-08T09:28:58;14.10;76.80
6462;DHT22;3264;42.862;25.098;2023-04-08T09:31:28;13.90;76.60
6462;DHT22;3264;42.862;25.098;2023-04-08T09:33:57;13.50;75.70
6462;DHT22;3264;42.862;25.098;2023-04-08T09:36:28;13.50;76.40
6462;DHT22;3264;42.862;25.098;2023-04-08T09:38:55;13.20;75.70
6462;DHT22;3264;42.862;25.098;2023-04-08T09:41:27;13.20;80.90
6462;DHT22;3264;42.862;25.098;2023-04-08T09:43:58;13.20;81.00
6462;DHT22;3264;42.862;25.098;2023-04-08T09:46:31;12.90;79.00
6462;DHT22;3264;42.862;25.098;2023-04-08T09:49:05;12.80;81.50
6462;DHT22;3264;42.862;25.098;2023-04-08T09:51:41;12.80;81.40
6462;DHT22;3264;42.862;25.098;2023-04-08T09:54:13;12.90;81.20
6462;DHT22;3264;42.862;25.098;2023-04-08T09:56:44;12.60;81.90
6462;DHT22;3264;42.862;25.098;2023-04-08T09:59:17;12.40;81.70
6462;DHT22;3264;42.862;25.098;2023-04-08T10:01:52;12.50;81.90
6462;DHT22;3264;42.862;25.098;2023-04-08T10:04:23;12.70;84.50
6462;DHT22;3264;42.862;25.098;2023-04-08T10:06:57;12.80;85.60
6462;DHT22;3264;42.862;25.098;2023-04-08T10:09:34;12.90;83.60
6462;DHT22;3264;42.862;25.098;2023-04-08T10:12:06;13.00;84.20
6462;DHT22;3264;42.862;25.098;2023-04-08T10:14:37;13.10;84.60
6462;DHT22;3264;42.862;25.098;2023-04-08T10:17:28;12.90;84.80
6462;DHT22;3264;42.862;25.098;2023-04-08T10:20:03;12.30;81.10
6462;DHT22;3264;42.862;25.098;2023-04-08T10:22:46;12.20;83.60
6462;DHT22;3264;42.862;25.098;2023-04-08T10:25:31;12.50;86.20
6462;DHT22;3264;42.862;25.098;2023-04-08T10:28:00;12.60;86.40
6462;DHT22;3264;42.862;25.098;2023-04-08T10:30:43;12.00;82.50
6462;DHT22;3264;42.862;25.098;2023-04-08T10:33:16;11.90;85.40
6462;DHT22;3264;42.862;25.098;2023-04-08T10:35:48;11.90;84.60
6462;DHT22;3264;42.862;25.098;2023-04-08T10:38:16;12.00;85.80
6462;DHT22;3264;42.862;25.098;2023-04-08T10:40:47;11.80;85.20
6462;DHT22;3264;42.862;25.098;2023-04-08T10:43:16;11.80;84.60
6462;DHT22;3264;42.862;25.098;2023-04-08T10:45:46;12.00;87.40
6462;DHT22;3264;42.862;25.098;2023-04-08T10:48:18;11.80;83.30
6462;DHT22;3264;42.862;25.098;2023-04-08T10:50:52;11.50;80.80
6462;DHT22;3264;42.862;25.098;2023-04-08T10:53:25;11.70;81.20
6462;DHT22;3264;42.862;25.098;2023-04-08T10:56:03;11.70;81.30
6462;DHT22;3264;42.862;25.098;2023-04-08T10:58:32;11.90;82.30
6462;DHT22;3264;42.862;25.098;2023-04-08T11:01:05;12.00;84.70
6462;DHT22;3264;42.862;25.098;2023-04-08T11:03:35;12.20;84.10
6462;DHT22;3264;42.862;25.098;2023-04-08T11:06:04;12.10;83.20
6462;DHT22;3264;42.862;25.098;2023-04-08T11:08:34;12.50;84.80
6462;DHT22;3264;42.862;25.098;2023-04-08T11:11:05;12.40;80.30
6462;DHT22;3264;42.862;25.098;2023-04-08T11:13:36;12.90;81.80
6462;DHT22;3264;42.862;25.098;2023-04-08T11:16:07;13.30;79.10
6462;DHT22;3264;42.862;25.098;2023-04-08T11:18:37;13.60;75.00
6462;DHT22;3264;42.862;25.098;2023-04-08T11:21:13;13.50;70.50
6462;DHT22;3264;42.862;25.098;2023-04-08T11:23:44;13.60;71.80
6462;DHT22;3264;42.862;25.098;2023-04-08T11:26:14;13.80;75.70
6462;DHT22;3264;42.862;25.098;2023-04-08T11:28:42;13.60;73.60
6462;DHT22;3264;42.862;25.098;2023-04-08T11:31:13;13.60;74.90
6462;DHT22;3264;42.862;25.098;2023-04-08T11:33:47;13.90;75.90
6462;DHT22;3264;42.862;25.098;2023-04-08T11:36:18;14.00;74.30
6462;DHT22;3264;42.862;25.098;2023-04-08T11:38:48;14.20;71.80
6462;DHT22;3264;42.862;25.098;2023-04-08T11:41:17;14.30;71.60
6462;DHT22;3264;42.862;25.098;2023-04-08T11:43:52;14.00;69.10
6462;DHT22;3264;42.862;25.098;2023-04-08T11:46:22;13.60;65.80
6462;DHT22;3264;42.862;25.098;2023-04-08T11:49:00;13.60;65.90
6462;DHT22;3264;42.862;25.098;2023-04-08T11:51:29;13.40;67.20
6462;DHT22;3264;42.862;25.098;2023-04-08T11:53:59;13.50;69.90
6462;DHT22;3264;42.862;25.098;2023-04-08T11:56:27;13.40;68.30
6462;DHT22;3264;42.862;25.098;2023-04-08T11:58:58;13.40;68.30
6462;DHT22;3264;42.862;25.098;2023-04-08T12:01:29;13.50;70.80
6462;DHT22;3264;42.862;25.098;2023-04-08T12:04:00;13.50;69.50
6462;DHT22;3264;42.862;25.098;2023-04-08T12:06:30;13.70;69.90
6462;DHT22;3264;42.862;25.098;2023-04-08T12:08:59;13.90;70.80
6462;DHT22;3264;42.862;25.098;2023-04-08T12:11:28;13.60;69.60
6462;DHT22;3264;42.862;25.098;2023-04-08T12:13:56;13.70;68.90
6462;DHT22;3264;42.862;25.098;2023-04-08T12:16:24;13.70;69.50
6462;DHT22;3264;42.862;25.098;2023-04-08T12:18:55;14.00;69.90
6462;DHT22;3264;42.862;25.098;2023-04-08T12:21:23;14.00;71.80
6462;DHT22;3264;42.862;25.098;2023-04-08T12:23:53;14.20;71.80
6462;DHT22;3264;42.862;25.098;2023-04-08T12:26:22;14.30;74.40
6462;DHT22;3264;42.862;25.098;2023-04-08T12:28:50;14.80;76.50
6462;DHT22;3264;42.862;25.098;2023-04-08T12:31:20;15.20;78.60
6462;DHT22;3264;42.862;25.098;2023-04-08T12:33:49;15.70;80.80
6462;DHT22;3264;42.862;25.098;2023-04-08T12:36:21;15.70;79.40
6462;DHT22;3264;42.862;25.098;2023-04-08T12:38:51;15.40;75.30
6462;DHT22;3264;42.862;25.098;2023-04-08T12:41:20;15.70;77.50
6462;DHT22;3264;42.862;25.098;2023-04-08T12:43:50;15.40;77.60
6462;DHT22;3264;42.862;25.098;2023-04-08T12:46:19;15.30;76.70
6462;DHT22;3264;42.862;25.098;2023-04-08T12:48:50;14.50;78.40
6462;DHT22;3264;42.862;25.098;2023-04-08T12:51:21;14.10;79.50
6462;DHT22;3264;42.862;25.098;2023-04-08T12:53:52;13.50;78.30
6462;DHT22;3264;42.862;25.098;2023-04-08T12:56:20;13.80;82.60
6462;DHT22;3264;42.862;25.098;2023-04-08T12:58:50;13.60;82.50
6462;DHT22;3264;42.862;25.098;2023-04-08T13:01:19;13.90;81.90
6462;DHT22;3264;42.862;25.098;2023-04-08T13:03:47;13.90;82.40
6462;DHT22;3264;42.862;25.098;2023-04-08T13:06:15;14.10;79.90
6462;DHT22;3264;42.862;25.098;2023-04-08T13:08:45;14.50;80.00
6462;DHT22;3264;42.862;25.098;2023-04-08T13:11:15;14.40;80.00
6462;DHT22;3264;42.862;25.098;2023-04-08T13:13:43;14.30;80.60
6462;DHT22;3264;42.862;25.098;2023-04-08T13:16:12;13.90;79.30
6462;DHT22;3264;42.862;25.098;2023-04-08T13:18:41;13.40;80.90
6462;DHT22;3264;42.862;25.098;2023-04-08T13:21:11;12.80;83.30
6462;DHT22;3264;42.862;25.098;2023-04-08T13:23:40;12.70;87.20
6462;DHT22;3264;42.862;25.098;2023-04-08T13:26:09;12.90;85.90
6462;DHT22;3264;42.862;25.098;2023-04-08T13:28:37;12.70;87.00
6462;DHT22;3264;42.862;25.098;2023-04-08T13:31:06;12.30;87.00
6462;DHT22;3264;42.862;25.098;2023-04-08T13:33:34;12.30;87.40
6462;DHT22;3264;42.862;25.098;2023-04-08T13:36:10;12.20;89.00
6462;DHT22;3264;42.862;25.098;2023-04-08T13:38:40;12.10;90.40
6462;DHT22;3264;42.862;25.098;2023-04-08T13:41:13;12.10;90.10
6462;DHT22;3264;42.862;25.098;2023-04-08T13:43:41;12.10;90.20
6462;DHT22;3264;42.862;25.098;2023-04-08T13:46:23;12.30;90.30
6462;DHT22;3264;42.862;25.098;2023-04-08T13:48:53;12.40;91.60
6462;DHT22;3264;42.862;25.098;2023-04-08T13:51:22;12.50;90.30
6462;DHT22;3264;42.862;25.098;2023-04-08T13:53:53;12.30;91.10
6462;DHT22;3264;42.862;25.098;2023-04-08T13:56:24;12.30;91.50
6462;DHT22;3264;42.862;25.098;2023-04-08T13:58:53;12.40;91.60
6462;DHT22;3264;42.862;25.098;2023-04-08T14:01:23;12.20;91.60
6462;DHT22;3264;42.862;25.098;2023-04-08T14:03:51;12.10;91.80
6462;DHT22;3264;42.862;25.098;2023-04-08T14:06:21;11.90;89.60
6462;DHT22;3264;42.862;25.098;2023-04-08T14:08:49;12.10;90.00
6462;DHT22;3264;42.862;25.098;2023-04-08T14:11:19;12.10;85.20
6462;DHT22;3264;42.862;25.098;2023-04-08T14:13:48;12.00;82.80
6462;DHT22;3264;42.862;25.098;2023-04-08T14:16:18;12.10;85.40
6462;DHT22;3264;42.862;25.098;2023-04-08T14:18:46;12.00;84.30
6462;DHT22;3264;42.862;25.098;2023-04-08T14:21:16;11.90;84.10
6462;DHT22;3264;42.862;25.098;2023-04-08T14:23:45;12.00;87.10
6462;DHT22;3264;42.862;25.098;2023-04-08T14:26:14;11.90;84.60
6462;DHT22;3264;42.862;25.098;2023-04-08T14:28:42;11.90;84.70
6462;DHT22;3264;42.862;25.098;2023-04-08T14:31:13;11.80;84.60
6462;DHT22;3264;42.862;25.098;2023-04-08T14:33:41;11.70;86.00
6462;DHT22;3264;42.862;25.098;2023-04-08T14:36:10;11.70;85.50
6462;DHT22;3264;42.862;25.098;2023-04-08T14:38:39;11.50;88.50
6462;DHT22;3264;42.862;25.098;2023-04-08T14:41:07;11.40;90.20
6462;DHT22;3264;42.862;25.098;2023-04-08T14:43:37;11.40;90.80
6462;DHT22;3264;42.862;25.098;2023-04-08T14:46:06;11.30;91.20
6462;DHT22;3264;42.862;25.098;2023-04-08T14:48:37;11.40;91.40
6462;DHT22;3264;42.862;25.098;2023-04-08T14:51:07;11.40;92.30
6462;DHT22;3264;42.862;25.098;2023-04-08T14:53:37;11.40;92.50
6462;DHT22;3264;42.862;25.098;2023-04-08T14:56:08;11.20;93.30
6462;DHT22;3264;42.862;25.098;2023-04-08T14:58:36;11.10;95.20
6462;DHT22;3264;42.862;25.098;2023-04-08T15:01:05;11.00;95.80
6462;DHT22;3264;42.862;25.098;2023-04-08T15:03:34;11.00;96.60
6462;DHT22;3264;42.862;25.098;2023-04-08T15:06:04;11.00;96.20
6462;DHT22;3264;42.862;25.098;2023-04-08T15:08:34;10.90;96.80
6462;DHT22;3264;42.862;25.098;2023-04-08T15:11:04;11.00;96.80
6462;DHT22;3264;42.862;25.098;2023-04-08T15:13:32;11.20;98.20
6462;DHT22;3264;42.862;25.098;2023-04-08T15:16:02;11.20;98.90
6462;DHT22;3264;42.862;25.098;2023-04-08T15:18:31;11.00;99.00
6462;DHT22;3264;42.862;25.098;2023-04-08T15:21:00;10.90;99.90
6462;DHT22;3264;42.862;25.098;2023-04-08T15:23:32;10.70;99.90
6462;DHT22;3264;42.862;25.098;2023-04-08T15:26:01;10.60;99.90
6462;DHT22;3264;42.862;25.098;2023-04-08T15:28:31;10.50;99.90
6462;DHT22;3264;42.862;25.098;2023-04-08T15:30:59;10.20;99.90
6462;DHT22;3264;42.862;25.098;2023-04-08T15:33:29;10.40;99.90
6462;DHT22;3264;42.862;25.098;2023-04-08T15:35:59;10.40;99.90
6462;DHT22;3264;42.862;25.098;2023-04-08T15:38:31;10.40;99.90
6462;DHT22;3264;42.862;25.098;2023-04-08T15:41:07;10.40;99.90
6462;DHT22;3264;42.862;25.098;2023-04-08T15:43:43;10.40;99.90
6462;DHT22;3264;42.862;25.098;2023-04-08T15:46:21;10.20;99.90
6462;DHT22;3264;42.862;25.098;2023-04-08T15:48:50;10.20;99.90
6462;DHT22;3264;42.862;25.098;2023-04-08T15:51:19;10.10;99.90
6462;DHT22;3264;42.862;25.098;2023-04-08T15:53:50;10.10;99.90
6462;DHT22;3264;42.862;25.098;2023-04-08T15:56:19;10.10;99.90
6462;DHT22;3264;42.862;25.098;2023-04-08T15:58:50;10.10;99.90
6462;DHT22;3264;42.862;25.098;2023-04-08T16:01:20;10.30;99.90
6462;DHT22;3264;42.862;25.098;2023-04-08T16:03:48;10.40;99.90
6462;DHT22;3264;42.862;25.098;2023-04-08T16:06:17;10.50;99.90
6462;DHT22;3264;42.862;25.098;2023-04-08T16:08:46;10.50;99.90
6462;DHT22;3264;42.862;25.098;2023-04-08T16:11:17;10.50;99.90